Time;durP1;ratioP1;P1;durP2;ratioP2;P2;SDS_P1;SDS_P2;PMS_P1;PMS_P2;Temp;Humidity;BMP_temperature;BMP_pressure;BME280_temperature;BME280_humidity;BME280_pressure;Samples;Min_cycle;Max_cycle;Signal;HPM_P1;HPM_P2
2021/05/31 00:00:05;;;;;;;2.30;2.10;;;20.40;40.70;;;;;;1479423;39;20025;-62
2021/05/31 00:01:26;;;;;;;3.55;2.38;;;20.40;40.70;;;;;;1477445;40;20061;-62
2021/05/31 00:02:48;;;;;;;2.30;2.03;;;20.40;40.50;;;;;;1483350;40;20028;-62
2021/05/31 00:06:49;;;;;;;2.10;1.90;;;20.40;41.40;;;;;;1468923;40;20043;-62
2021/05/31 00:08:10;;;;;;;2.72;2.50;;;20.40;40.90;;;;;;1484895;40;20118;-62
2021/05/31 00:09:34;;;;;;;3.15;2.20;;;20.30;40.60;;;;;;1476617;40;20365;-61
2021/05/31 00:10:55;;;;;;;2.78;2.40;;;20.30;40.90;;;;;;1481671;40;20262;-62
2021/05/31 00:12:17;;;;;;;3.38;2.42;;;20.30;40.90;;;;;;1486018;40;20393;-61
2021/05/31 00:13:41;;;;;;;2.47;2.28;;;20.30;41.00;;;;;;1480172;40;20025;-61
2021/05/31 00:15:14;;;;;;;3.05;2.33;;;20.20;41.10;;;;;;1479025;40;20053;-61
2021/05/31 00:16:36;;;;;;;3.05;2.40;;;20.20;41.20;;;;;;1475581;40;20046;-61
2021/05/31 00:17:57;;;;;;;3.08;2.30;;;20.20;41.00;;;;;;1478291;40;20309;-61
2021/05/31 00:19:19;;;;;;;2.70;2.50;;;20.20;41.00;;;;;;1480872;40;20377;-62
2021/05/31 00:20:55;;;;;;;3.95;2.60;;;20.20;41.10;;;;;;1480365;40;20269;-61
2021/05/31 00:22:16;;;;;;;2.38;2.17;;;20.10;41.10;;;;;;1481463;40;20024;-61
2021/05/31 00:23:37;;;;;;;2.67;2.47;;;20.10;41.20;;;;;;1482079;40;20021;-61
2021/05/31 00:24:58;;;;;;;3.60;2.60;;;20.10;41.40;;;;;;1478815;40;20400;-61
2021/05/31 00:26:22;;;;;;;2.58;2.38;;;20.10;41.40;;;;;;1483830;40;20613;-61
2021/05/31 00:27:43;;;;;;;2.83;2.60;;;20.10;41.60;;;;;;1480220;40;20103;-61
2021/05/31 00:29:04;;;;;;;3.05;2.40;;;20.10;41.50;;;;;;1482458;40;20150;-61
2021/05/31 00:30:28;;;;;;;2.92;2.55;;;20.00;41.40;;;;;;1481359;40;20053;-61
2021/05/31 00:31:50;;;;;;;2.63;2.42;;;20.00;41.60;;;;;;1480737;40;20044;-61
2021/05/31 00:33:12;;;;;;;3.55;2.40;;;20.00;42.00;;;;;;1481036;40;20025;-61
2021/05/31 00:34:32;;;;;;;3.25;2.40;;;20.00;42.00;;;;;;1478727;40;20121;-61
2021/05/31 00:36:14;;;;;;;2.88;2.60;;;20.00;42.20;;;;;;1479958;40;20028;-61
2021/05/31 00:37:36;;;;;;;3.05;2.40;;;20.00;42.30;;;;;;1479214;40;20450;-61
2021/05/31 00:38:57;;;;;;;2.80;2.60;;;20.00;42.30;;;;;;1486322;40;20016;-61
2021/05/31 00:40:18;;;;;;;2.38;2.17;;;19.90;42.40;;;;;;1476581;40;20044;-61
2021/05/31 00:41:44;;;;;;;2.88;2.55;;;19.90;42.80;;;;;;1476503;40;20025;-68
2021/05/31 00:43:05;;;;;;;2.38;2.20;;;19.90;42.90;;;;;;1480490;40;20025;-61
2021/05/31 00:44:26;;;;;;;2.75;2.38;;;19.90;43.00;;;;;;1477228;40;20045;-61
2021/05/31 00:45:50;;;;;;;2.72;2.53;;;19.90;43.10;;;;;;1481497;40;20129;-62
2021/05/31 00:47:11;;;;;;;2.75;2.55;;;19.90;43.20;;;;;;1481970;40;20037;-61
2021/05/31 00:48:32;;;;;;;2.78;2.55;;;19.90;43.20;;;;;;1480924;40;20234;-62
2021/05/31 00:49:54;;;;;;;2.97;2.58;;;19.80;43.00;;;;;;1477909;40;20037;-62
2021/05/31 00:51:21;;;;;;;3.13;2.65;;;19.80;42.90;;;;;;1482556;40;20033;-62
2021/05/31 00:52:42;;;;;;;2.80;2.45;;;19.80;43.00;;;;;;1480970;40;20017;-62
2021/05/31 00:54:03;;;;;;;2.85;2.65;;;19.80;43.00;;;;;;1482374;40;20021;-62
2021/05/31 00:55:25;;;;;;;3.08;2.40;;;19.80;43.10;;;;;;1487125;40;20396;-62
2021/05/31 00:56:46;;;;;;;3.22;2.45;;;19.70;43.40;;;;;;1482133;39;20041;-61
2021/05/31 00:58:08;;;;;;;2.72;2.53;;;19.70;43.40;;;;;;1480282;40;20300;-62
2021/05/31 00:59:29;;;;;;;2.70;2.50;;;19.70;43.70;;;;;;1484795;40;20032;-62
2021/05/31 01:00:50;;;;;;;3.17;2.75;;;19.70;43.80;;;;;;1481480;40;20029;-61
2021/05/31 01:02:12;;;;;;;2.80;2.50;;;19.70;44.00;;;;;;1479693;40;20108;-62
2021/05/31 01:03:33;;;;;;;4.53;2.90;;;19.60;44.00;;;;;;1481594;40;20044;-61
2021/05/31 01:04:54;;;;;;;4.90;2.63;;;19.60;43.90;;;;;;1480136;40;20036;-62
2021/05/31 01:06:26;;;;;;;3.20;2.50;;;19.60;44.00;;;;;;1479099;40;20540;-62
2021/05/31 01:07:52;;;;;;;3.78;2.35;;;19.60;44.20;;;;;;1479576;40;20024;-61
2021/05/31 01:09:26;;;;;;;3.15;2.63;;;19.50;44.00;;;;;;1485818;39;20117;-61
2021/05/31 01:10:55;;;;;;;3.25;2.67;;;19.50;44.30;;;;;;1481639;40;20117;-62
2021/05/31 01:12:54;;;;;;;2.95;2.70;;;19.50;44.30;;;;;;1481885;40;20036;-62
2021/05/31 01:14:24;;;;;;;2.63;2.40;;;19.50;44.20;;;;;;1480151;40;20169;-61
2021/05/31 01:16:14;;;;;;;3.85;2.70;;;19.50;44.00;;;;;;1481924;40;20040;-62
2021/05/31 01:18:09;;;;;;;2.50;2.30;;;19.50;44.10;;;;;;1479622;40;20152;-61
2021/05/31 01:19:49;;;;;;;2.60;2.40;;;19.50;44.10;;;;;;1480536;40;20048;-61
2021/05/31 01:21:15;;;;;;;2.78;2.58;;;19.50;44.10;;;;;;1482213;40;20068;-62
2021/05/31 01:22:40;;;;;;;3.08;2.78;;;19.50;43.80;;;;;;1482078;40;20044;-63
2021/05/31 01:24:39;;;;;;;2.90;2.60;;;19.40;44.00;;;;;;1479761;40;20027;-62
2021/05/31 01:29:07;;;;;;;2.45;2.15;;;19.40;44.30;;;;;;1479659;40;20037;-62
2021/05/31 01:30:29;;;;;;;2.45;2.25;;;19.40;44.10;;;;;;1480789;39;20032;-61
2021/05/31 01:31:57;;;;;;;3.80;2.55;;;19.30;43.70;;;;;;1481622;40;20041;-62
2021/05/31 01:33:22;;;;;;;2.88;2.58;;;19.30;44.10;;;;;;1480459;40;20021;-61
2021/05/31 01:34:43;;;;;;;2.72;2.53;;;19.30;44.20;;;;;;1476445;40;20053;-62
2021/05/31 01:36:06;;;;;;;4.47;2.65;;;19.20;44.20;;;;;;1480606;40;20024;-62
2021/05/31 01:37:29;;;;;;;3.38;3.00;;;19.30;44.90;;;;;;1480156;40;20012;-62
2021/05/31 01:39:00;;;;;;;2.72;2.53;;;19.20;44.40;;;;;;1480985;40;20041;-62
2021/05/31 01:40:22;;;;;;;2.72;2.53;;;19.20;44.60;;;;;;1485379;40;20109;-62
2021/05/31 01:41:47;;;;;;;2.90;2.70;;;19.20;44.60;;;;;;1479723;40;20017;-61
2021/05/31 01:43:10;;;;;;;3.80;3.10;;;19.20;44.60;;;;;;1478467;40;20040;-61
2021/05/31 01:44:34;;;;;;;4.25;2.55;;;19.10;44.70;;;;;;1478732;40;20133;-61
2021/05/31 01:45:56;;;;;;;3.85;2.55;;;19.10;44.90;;;;;;1477599;40;20434;-62
2021/05/31 01:47:18;;;;;;;4.05;2.80;;;19.10;44.80;;;;;;1485239;40;20368;-62
2021/05/31 01:48:39;;;;;;;4.38;2.80;;;19.10;44.90;;;;;;1480873;40;20044;-62
2021/05/31 01:50:11;;;;;;;3.47;2.90;;;19.10;45.40;;;;;;1482719;40;20478;-61
2021/05/31 01:51:32;;;;;;;3.47;3.10;;;19.10;45.20;;;;;;1478903;40;20040;-62
2021/05/31 01:52:53;;;;;;;3.20;2.90;;;19.10;45.30;;;;;;1482150;40;20344;-61
2021/05/31 01:54:15;;;;;;;3.78;3.38;;;19.10;45.40;;;;;;1480237;40;20047;-61
2021/05/31 01:55:37;;;;;;;3.92;3.28;;;19.10;45.70;;;;;;1483333;39;20036;-62
2021/05/31 01:56:59;;;;;;;3.08;2.88;;;19.00;45.70;;;;;;1479654;40;20040;-61
2021/05/31 01:58:21;;;;;;;3.75;3.00;;;19.00;45.80;;;;;;1483493;40;20086;-61
2021/05/31 01:59:42;;;;;;;3.55;2.80;;;19.00;45.80;;;;;;1480563;39;20041;-61
2021/05/31 02:01:03;;;;;;;3.00;2.72;;;19.00;45.90;;;;;;1481075;40;20021;-61
2021/05/31 02:02:30;;;;;;;3.72;2.88;;;19.00;45.90;;;;;;1482013;40;20047;-62
2021/05/31 02:03:51;;;;;;;4.22;3.65;;;18.90;46.30;;;;;;1480055;40;20032;-61
2021/05/31 02:05:14;;;;;;;4.10;3.50;;;18.90;46.00;;;;;;1483073;39;20027;-61
2021/05/31 02:06:35;;;;;;;3.83;3.42;;;18.90;46.00;;;;;;1478286;40;20040;-62
2021/05/31 02:07:56;;;;;;;4.63;3.38;;;18.90;46.00;;;;;;1479369;40;20064;-61
2021/05/31 02:09:18;;;;;;;5.28;3.67;;;18.90;46.10;;;;;;1482842;40;20257;-61
2021/05/31 02:10:39;;;;;;;3.72;3.42;;;18.90;46.10;;;;;;1481903;40;20045;-61
2021/05/31 02:12:11;;;;;;;5.32;2.95;;;18.90;46.00;;;;;;1483254;40;20048;-61
2021/05/31 02:13:36;;;;;;;3.20;2.90;;;18.80;46.00;;;;;;1482717;40;20032;-61
2021/05/31 02:15:03;;;;;;;4.60;3.13;;;18.80;45.80;;;;;;1483324;40;20032;-61
2021/05/31 02:16:33;;;;;;;4.97;3.40;;;18.80;46.00;;;;;;1481329;40;20017;-61
2021/05/31 02:18:09;;;;;;;4.60;3.08;;;18.80;46.20;;;;;;1480748;40;20029;-62
2021/05/31 02:19:33;;;;;;;3.92;3.00;;;18.80;46.00;;;;;;1478505;40;20043;-61
2021/05/31 02:21:11;;;;;;;5.38;3.28;;;18.80;45.70;;;;;;1475837;40;20025;-61
2021/05/31 02:22:37;;;;;;;3.60;2.90;;;18.80;45.80;;;;;;1482653;40;20025;-61
2021/05/31 02:23:59;;;;;;;4.30;3.42;;;18.80;45.80;;;;;;1479793;40;20038;-61
2021/05/31 02:25:20;;;;;;;4.07;3.45;;;18.80;45.80;;;;;;1482362;40;20053;-61
2021/05/31 02:26:44;;;;;;;4.22;3.50;;;18.70;45.90;;;;;;1483260;40;20051;-61
2021/05/31 02:28:08;;;;;;;3.75;3.42;;;18.70;45.90;;;;;;1482084;39;20039;-61
2021/05/31 02:29:29;;;;;;;4.30;3.38;;;18.70;46.00;;;;;;1480096;40;20068;-61
2021/05/31 02:30:52;;;;;;;4.43;3.65;;;18.70;45.90;;;;;;1479868;40;20029;-61
2021/05/31 02:32:14;;;;;;;3.85;3.47;;;18.70;46.20;;;;;;1481458;40;20029;-61
2021/05/31 02:33:35;;;;;;;5.75;4.15;;;18.70;46.40;;;;;;1476684;40;20037;-62
2021/05/31 02:34:57;;;;;;;4.97;3.63;;;18.60;46.40;;;;;;1474682;40;20033;-61
2021/05/31 02:36:18;;;;;;;4.63;3.92;;;18.60;46.30;;;;;;1481462;40;20024;-62
2021/05/31 02:37:42;;;;;;;5.15;3.45;;;18.60;46.60;;;;;;1483066;40;20117;-61
2021/05/31 02:39:04;;;;;;;6.80;3.80;;;18.60;46.80;;;;;;1477832;40;20025;-61
2021/05/31 02:40:25;;;;;;;4.10;3.70;;;18.60;46.80;;;;;;1476824;40;20018;-61
2021/05/31 02:44:32;;;;;;;3.92;3.58;;;18.50;47.10;;;;;;1480025;40;20039;-61
2021/05/31 02:45:53;;;;;;;3.53;3.22;;;18.60;46.80;;;;;;1480451;40;20102;-61
2021/05/31 02:47:14;;;;;;;4.80;3.80;;;18.60;46.40;;;;;;1482245;40;20039;-61
2021/05/31 02:48:35;;;;;;;4.10;3.70;;;18.50;46.80;;;;;;1481505;40;20039;-61
2021/05/31 02:49:56;;;;;;;4.32;3.92;;;18.50;47.00;;;;;;1480898;40;20502;-61
2021/05/31 02:51:17;;;;;;;5.20;3.92;;;18.50;47.00;;;;;;1478011;40;20067;-61
2021/05/31 02:52:41;;;;;;;5.68;3.97;;;18.50;47.10;;;;;;1478826;40;20316;-61
2021/05/31 02:54:11;;;;;;;3.60;3.30;;;18.40;47.20;;;;;;1483232;40;20036;-61
2021/05/31 02:55:33;;;;;;;5.70;3.67;;;18.40;47.20;;;;;;1484323;40;20024;-61
2021/05/31 02:56:54;;;;;;;4.13;3.60;;;18.40;47.30;;;;;;1481917;40;20025;-61
2021/05/31 02:58:15;;;;;;;4.80;4.03;;;18.40;47.30;;;;;;1483345;40;20064;-61
2021/05/31 02:59:36;;;;;;;4.35;3.63;;;18.40;47.80;;;;;;1485176;40;20031;-61
2021/05/31 03:00:57;;;;;;;6.57;4.40;;;18.40;47.50;;;;;;1484469;40;20036;-61
2021/05/31 03:02:18;;;;;;;4.45;3.92;;;18.40;47.50;;;;;;1479737;40;20033;-61
2021/05/31 03:03:38;;;;;;;4.32;3.75;;;18.40;47.60;;;;;;1483680;40;20017;-61
2021/05/31 03:04:59;;;;;;;4.45;3.88;;;18.30;47.50;;;;;;1481123;40;20065;-61
2021/05/31 03:06:20;;;;;;;4.03;3.60;;;18.30;47.50;;;;;;1480940;40;20029;-61
2021/05/31 03:07:41;;;;;;;4.88;3.80;;;18.30;47.50;;;;;;1487264;40;20366;-61
2021/05/31 03:09:02;;;;;;;5.53;4.13;;;18.30;47.60;;;;;;1483228;40;20362;-61
2021/05/31 03:10:24;;;;;;;4.30;3.72;;;18.30;47.80;;;;;;1480810;40;20036;-61
2021/05/31 03:11:45;;;;;;;4.82;4.30;;;18.30;47.80;;;;;;1478095;40;20390;-61
2021/05/31 03:13:06;;;;;;;6.07;3.95;;;18.30;47.90;;;;;;1480379;40;20040;-61
2021/05/31 03:14:27;;;;;;;4.00;3.60;;;18.30;48.00;;;;;;1475242;40;20038;-61
2021/05/31 03:15:49;;;;;;;5.45;3.47;;;18.20;48.10;;;;;;1476688;40;20052;-61
2021/05/31 03:17:10;;;;;;;6.55;4.10;;;18.20;48.20;;;;;;1468846;40;20579;-61
2021/05/31 03:18:31;;;;;;;5.70;4.35;;;18.20;48.30;;;;;;1477092;40;20049;-61
2021/05/31 03:19:52;;;;;;;5.30;4.40;;;18.20;48.40;;;;;;1472631;40;20034;-61
2021/05/31 03:21:14;;;;;;;4.78;4.35;;;18.20;48.40;;;;;;1476051;40;20269;-61
2021/05/31 03:22:35;;;;;;;4.80;4.05;;;18.20;48.50;;;;;;1478196;40;20072;-61
2021/05/31 03:23:56;;;;;;;5.65;4.03;;;18.20;48.60;;;;;;1475682;40;20030;-61
2021/05/31 03:25:17;;;;;;;5.75;3.80;;;18.10;48.60;;;;;;1475307;40;20030;-61
2021/05/31 03:26:38;;;;;;;4.72;3.90;;;18.10;48.70;;;;;;1475547;40;20091;-61
2021/05/31 03:27:59;;;;;;;4.10;3.75;;;18.10;48.60;;;;;;1478480;40;20633;-61
2021/05/31 03:29:20;;;;;;;5.25;3.90;;;18.10;48.70;;;;;;1474354;40;20040;-61
2021/05/31 03:30:41;;;;;;;4.13;3.60;;;18.10;48.70;;;;;;1476768;40;20057;-61
2021/05/31 03:32:02;;;;;;;4.78;3.67;;;18.10;48.90;;;;;;1478066;40;20045;-61
2021/05/31 03:33:23;;;;;;;4.28;3.88;;;18.10;49.00;;;;;;1476318;40;20713;-61
2021/05/31 03:34:44;;;;;;;4.00;3.70;;;18.00;49.00;;;;;;1478197;40;20037;-61
2021/05/31 03:36:05;;;;;;;4.55;3.88;;;18.00;49.10;;;;;;1477368;40;20033;-61
2021/05/31 03:37:26;;;;;;;4.82;3.45;;;18.00;49.00;;;;;;1475287;40;20111;-61
2021/05/31 03:38:46;;;;;;;3.92;3.53;;;18.00;49.00;;;;;;1475984;40;20038;-61
2021/05/31 03:40:08;;;;;;;5.93;3.88;;;17.90;49.00;;;;;;1477035;40;20044;-61
2021/05/31 03:41:29;;;;;;;4.47;3.97;;;17.90;49.00;;;;;;1475767;40;20282;-61
2021/05/31 03:42:52;;;;;;;4.05;3.45;;;17.90;49.10;;;;;;1470371;40;20388;-61
2021/05/31 03:44:13;;;;;;;4.72;3.88;;;17.90;49.20;;;;;;1475732;40;20322;-61
2021/05/31 03:45:34;;;;;;;4.28;3.67;;;17.90;49.20;;;;;;1476180;40;20038;-61
2021/05/31 03:46:55;;;;;;;4.65;4.18;;;17.80;49.20;;;;;;1479046;40;20041;-61
2021/05/31 03:48:15;;;;;;;4.68;4.05;;;17.80;49.40;;;;;;1477754;40;20376;-61
2021/05/31 03:49:36;;;;;;;4.28;3.88;;;17.80;49.40;;;;;;1477157;40;20061;-61
2021/05/31 03:51:11;;;;;;;5.05;4.20;;;17.80;49.50;;;;;;1475993;40;20077;-61
2021/05/31 03:52:32;;;;;;;4.10;3.70;;;17.80;49.70;;;;;;1480234;40;20544;-61
2021/05/31 03:53:53;;;;;;;4.18;3.78;;;17.80;49.70;;;;;;1476974;40;20262;-61
2021/05/31 03:58:09;;;;;;;5.75;4.03;;;17.70;50.30;;;;;;1475771;40;20046;-61
2021/05/31 03:59:31;;;;;;;5.88;4.45;;;17.70;50.20;;;;;;1474898;40;20141;-61
2021/05/31 04:00:52;;;;;;;7.72;4.28;;;17.70;49.60;;;;;;1476668;40;20033;-61
2021/05/31 04:02:13;;;;;;;4.90;4.20;;;17.70;49.80;;;;;;1478073;40;20029;-61
2021/05/31 04:03:35;;;;;;;5.38;4.30;;;17.70;50.00;;;;;;1467440;40;20097;-61
2021/05/31 04:04:57;;;;;;;4.95;4.20;;;17.70;50.10;;;;;;1474944;40;20416;-61
2021/05/31 04:12:44;;;;;;;5.38;4.30;;;17.60;50.10;;;;;;1481533;40;20075;-61
2021/05/31 04:14:16;;;;;;;5.70;4.05;;;17.60;50.20;;;;;;1486300;40;20056;-61
2021/05/31 04:15:36;;;;;;;7.03;4.68;;;17.60;50.90;;;;;;1482895;40;20337;-61
2021/05/31 04:16:57;;;;;;;6.32;4.55;;;17.60;50.50;;;;;;1480683;40;20032;-61
2021/05/31 04:18:20;;;;;;;5.55;4.70;;;17.60;50.70;;;;;;1481139;40;20304;-61
2021/05/31 04:19:40;;;;;;;4.95;4.45;;;17.60;50.90;;;;;;1479526;40;20055;-61
2021/05/31 04:21:01;;;;;;;4.82;4.40;;;17.60;50.70;;;;;;1478313;40;20032;-61
2021/05/31 04:22:23;;;;;;;5.78;4.47;;;17.60;50.90;;;;;;1483785;40;20284;-61
2021/05/31 04:23:44;;;;;;;7.30;4.72;;;17.60;51.10;;;;;;1480536;40;20044;-61
2021/05/31 04:25:06;;;;;;;5.63;4.38;;;17.60;51.20;;;;;;1476422;40;20112;-61
2021/05/31 04:26:27;;;;;;;5.65;4.45;;;17.60;51.30;;;;;;1473518;40;20033;-61
2021/05/31 04:27:48;;;;;;;5.10;4.60;;;17.60;51.30;;;;;;1481996;40;20108;-61
2021/05/31 04:29:13;;;;;;;5.80;4.78;;;17.50;51.40;;;;;;1480258;40;20045;-61
2021/05/31 04:30:34;;;;;;;6.38;4.90;;;17.50;51.60;;;;;;1480169;40;20037;-62
2021/05/31 04:31:55;;;;;;;5.32;4.05;;;17.60;51.40;;;;;;1481708;40;20021;-61
2021/05/31 04:33:19;;;;;;;5.85;4.88;;;17.50;51.40;;;;;;1481772;40;20024;-61
2021/05/31 04:34:40;;;;;;;5.80;4.68;;;17.50;51.80;;;;;;1477496;40;20064;-61
2021/05/31 04:36:01;;;;;;;5.47;4.65;;;17.50;51.60;;;;;;1478110;40;20198;-61
2021/05/31 04:37:22;;;;;;;5.88;4.30;;;17.60;51.70;;;;;;1479185;40;20105;-61
2021/05/31 04:38:43;;;;;;;7.25;5.03;;;17.60;51.80;;;;;;1479207;40;20378;-60
2021/05/31 04:40:05;;;;;;;6.38;4.45;;;17.50;51.70;;;;;;1477508;40;20315;-61
2021/05/31 04:41:26;;;;;;;5.80;4.55;;;17.60;51.90;;;;;;1480069;40;20401;-61
2021/05/31 04:42:47;;;;;;;7.63;4.80;;;17.60;51.80;;;;;;1482839;40;20018;-61
2021/05/31 04:44:08;;;;;;;5.20;4.65;;;17.60;51.80;;;;;;1482965;40;20036;-61
2021/05/31 04:45:29;;;;;;;5.32;4.32;;;17.60;51.90;;;;;;1480522;40;20032;-61
2021/05/31 04:46:50;;;;;;;7.20;4.90;;;17.60;52.00;;;;;;1479292;40;20017;-61
2021/05/31 04:48:11;;;;;;;6.80;4.47;;;17.60;52.00;;;;;;1480100;40;20329;-61
2021/05/31 04:49:33;;;;;;;5.78;4.78;;;17.60;52.00;;;;;;1479970;40;20029;-61
2021/05/31 04:50:57;;;;;;;5.75;4.10;;;17.60;52.20;;;;;;1476781;40;20044;-61
2021/05/31 04:52:18;;;;;;;6.20;4.32;;;17.60;52.20;;;;;;1479272;40;20051;-61
2021/05/31 04:53:39;;;;;;;6.15;4.93;;;17.60;52.10;;;;;;1482658;40;20029;-61
2021/05/31 04:55:00;;;;;;;5.43;4.68;;;17.60;52.20;;;;;;1482900;40;20175;-61
2021/05/31 04:56:21;;;;;;;7.13;4.78;;;17.60;52.10;;;;;;1480451;40;20037;-61
2021/05/31 04:57:43;;;;;;;7.32;4.70;;;17.60;52.00;;;;;;1479580;40;20047;-61
2021/05/31 04:59:04;;;;;;;7.00;4.40;;;17.60;52.00;;;;;;1479686;40;20029;-61
2021/05/31 05:00:25;;;;;;;5.90;4.25;;;17.60;52.00;;;;;;1481402;40;20033;-61
2021/05/31 05:01:46;;;;;;;5.15;4.65;;;17.60;52.00;;;;;;1480154;40;20090;-61
2021/05/31 05:03:07;;;;;;;5.68;4.40;;;17.60;52.60;;;;;;1473009;40;20014;-61
2021/05/31 05:04:27;;;;;;;6.43;4.22;;;17.60;52.20;;;;;;1474069;40;20037;-61
2021/05/31 05:05:51;;;;;;;6.30;4.50;;;17.70;52.30;;;;;;1479354;40;20013;-61
2021/05/31 05:07:14;;;;;;;5.97;4.80;;;17.70;52.40;;;;;;1479963;40;20057;-61
2021/05/31 05:08:35;;;;;;;7.13;4.82;;;17.70;52.20;;;;;;1477820;40;20393;-61
2021/05/31 05:14:38;;;;;;;6.90;4.75;;;17.70;52.60;;;;;;1473846;40;20146;-61
2021/05/31 05:15:59;;;;;;;7.45;4.82;;;17.80;51.70;;;;;;1472586;40;20151;-62
2021/05/31 05:17:20;;;;;;;5.85;4.25;;;17.80;51.70;;;;;;1476598;40;20054;-62
2021/05/31 05:18:58;;;;;;;5.85;4.80;;;17.80;51.90;;;;;;1478623;40;20073;-61
2021/05/31 05:20:22;;;;;;;5.65;4.53;;;17.80;52.30;;;;;;1472133;40;20045;-61
2021/05/31 05:21:43;;;;;;;6.15;5.07;;;17.80;52.00;;;;;;1472646;40;20092;-61
2021/05/31 05:23:04;;;;;;;5.80;4.57;;;17.80;52.00;;;;;;1476992;40;20058;-61
2021/05/31 05:24:25;;;;;;;6.57;5.13;;;17.80;51.90;;;;;;1476701;40;20033;-61
2021/05/31 05:25:46;;;;;;;6.93;5.15;;;17.80;51.80;;;;;;1475356;40;20021;-61
2021/05/31 05:27:07;;;;;;;6.88;4.93;;;17.90;51.80;;;;;;1476618;40;20081;-61
2021/05/31 05:28:28;;;;;;;6.45;5.22;;;17.90;51.90;;;;;;1476190;40;20604;-61
2021/05/31 05:29:49;;;;;;;7.35;4.70;;;17.90;51.80;;;;;;1476314;40;20048;-61
2021/05/31 05:31:11;;;;;;;8.32;4.78;;;17.90;51.80;;;;;;1475375;40;20033;-61
2021/05/31 05:32:33;;;;;;;8.20;5.00;;;17.90;51.90;;;;;;1473553;40;20030;-61
2021/05/31 05:33:55;;;;;;;8.02;4.90;;;17.90;51.90;;;;;;1477315;40;20147;-61
2021/05/31 05:35:31;;;;;;;9.15;5.15;;;18.00;51.80;;;;;;1478092;40;20033;-61
2021/05/31 05:37:42;;;;;;;5.85;4.38;;;18.00;51.80;;;;;;1477415;40;20277;-61
2021/05/31 05:40:41;;;;;;;;;;;18.00;51.50;;;;;;1477770;40;20030;-61
2021/05/31 05:45:05;;;;;;;6.65;5.18;;;18.10;51.30;;;;;;1476062;40;20037;-61
2021/05/31 05:47:47;;;;;;;8.38;5.30;;;18.10;51.30;;;;;;1475084;40;20037;-61
2021/05/31 05:49:07;;;;;;;6.80;5.30;;;18.20;51.40;;;;;;1479280;40;20113;-61
2021/05/31 05:50:28;;;;;;;7.55;5.60;;;18.20;51.40;;;;;;1474919;40;20030;-61
2021/05/31 05:51:49;;;;;;;9.52;5.30;;;18.20;51.50;;;;;;1474619;40;20034;-62
2021/05/31 05:53:14;;;;;;;5.75;4.95;;;18.20;51.50;;;;;;1481981;40;20122;-61
2021/05/31 05:54:35;;;;;;;7.20;5.28;;;18.20;51.60;;;;;;1476400;40;20025;-61
2021/05/31 05:55:56;;;;;;;9.32;5.30;;;18.20;51.50;;;;;;1475986;40;20063;-61
2021/05/31 05:57:17;;;;;;;9.02;5.13;;;18.20;51.50;;;;;;1474787;40;20029;-61
2021/05/31 05:58:39;;;;;;;6.60;5.30;;;18.20;51.50;;;;;;1478501;40;20048;-61
2021/05/31 06:00:03;;;;;;;7.97;5.40;;;18.30;51.40;;;;;;1474537;40;20025;-61
2021/05/31 06:01:25;;;;;;;6.68;5.38;;;18.30;51.30;;;;;;1475361;40;20033;-61
2021/05/31 06:02:46;;;;;;;7.82;5.53;;;18.30;51.40;;;;;;1477077;40;20033;-62
2021/05/31 06:04:07;;;;;;;9.32;5.57;;;18.30;51.40;;;;;;1473725;40;20036;-61
2021/05/31 06:05:28;;;;;;;6.63;5.30;;;18.30;51.60;;;;;;1472281;40;20041;-62
2021/05/31 06:06:49;;;;;;;7.78;5.20;;;18.40;51.60;;;;;;1472946;40;20033;-61
2021/05/31 06:08:19;;;;;;;7.28;5.28;;;18.30;51.40;;;;;;1479084;40;20653;-61
2021/05/31 06:09:40;;;;;;;6.40;5.57;;;18.40;51.40;;;;;;1477958;40;20028;-61
2021/05/31 06:11:02;;;;;;;10.30;6.07;;;18.40;51.20;;;;;;1470783;40;20030;-61
2021/05/31 06:12:22;;;;;;;6.95;5.30;;;18.40;51.60;;;;;;1473502;40;20029;-62
2021/05/31 06:13:44;;;;;;;6.25;5.35;;;18.50;51.00;;;;;;1482104;40;20354;-61
2021/05/31 06:15:06;;;;;;;6.68;5.13;;;18.50;50.90;;;;;;1482278;40;20036;-61
2021/05/31 06:16:27;;;;;;;6.68;5.07;;;18.50;50.90;;;;;;1485156;40;20017;-62
2021/05/31 06:17:51;;;;;;;6.75;5.07;;;18.60;50.90;;;;;;1485653;40;20046;-61
2021/05/31 06:19:13;;;;;;;7.88;5.45;;;18.60;50.90;;;;;;1486753;40;20040;-61
2021/05/31 06:20:35;;;;;;;9.38;5.35;;;18.60;50.80;;;;;;1484563;40;20024;-61
2021/05/31 06:21:56;;;;;;;6.85;4.65;;;18.60;50.70;;;;;;1485847;40;20048;-61
2021/05/31 06:23:17;;;;;;;6.47;4.75;;;18.70;50.50;;;;;;1483410;40;20025;-62
2021/05/31 06:24:38;;;;;;;4.35;3.95;;;18.70;50.30;;;;;;1481759;40;20046;-62
2021/05/31 06:25:59;;;;;;;4.82;4.20;;;18.70;50.30;;;;;;1481691;40;20044;-61
2021/05/31 06:31:55;;;;;;;6.75;4.68;;;18.80;50.00;;;;;;1483886;40;20028;-61
2021/05/31 06:33:19;;;;;;;7.03;4.82;;;18.80;49.90;;;;;;1486374;39;20020;-61
2021/05/31 06:34:40;;;;;;;6.60;4.93;;;18.80;50.00;;;;;;1486280;40;20028;-62
2021/05/31 06:36:06;;;;;;;5.28;4.53;;;18.90;50.10;;;;;;1487609;40;20032;-61
2021/05/31 06:42:03;;;;;;;4.03;3.55;;;19.00;50.10;;;;;;1481756;40;20284;-62
2021/05/31 06:43:23;;;;;;;6.13;4.22;;;19.00;49.70;;;;;;1480459;40;20088;-62
2021/05/31 06:44:47;;;;;;;4.32;3.65;;;19.00;49.50;;;;;;1481599;40;20049;-62
2021/05/31 06:46:08;;;;;;;4.80;3.50;;;19.10;49.20;;;;;;1479461;40;20040;-62
2021/05/31 06:47:29;;;;;;;4.40;3.80;;;19.10;49.10;;;;;;1481656;40;20558;-62
2021/05/31 06:48:50;;;;;;;5.30;4.10;;;19.10;49.00;;;;;;1483095;40;20132;-62
2021/05/31 06:50:12;;;;;;;5.78;4.55;;;19.10;49.40;;;;;;1484767;40;20025;-62
2021/05/31 06:51:33;;;;;;;5.72;4.05;;;19.20;49.00;;;;;;1480907;40;20036;-62
2021/05/31 06:52:55;;;;;;;6.13;4.07;;;19.20;49.30;;;;;;1482894;40;20048;-62
2021/05/31 06:54:16;;;;;;;4.65;3.75;;;19.20;48.80;;;;;;1486071;40;20484;-62
2021/05/31 06:55:37;;;;;;;5.32;4.25;;;19.20;48.80;;;;;;1484800;40;20032;-62
2021/05/31 06:56:58;;;;;;;6.43;4.35;;;19.30;48.90;;;;;;1483588;40;20032;-62
2021/05/31 06:58:19;;;;;;;4.47;4.07;;;19.30;48.80;;;;;;1485657;40;20033;-62
2021/05/31 06:59:43;;;;;;;6.57;3.88;;;19.30;48.70;;;;;;1484141;40;20037;-62
2021/05/31 07:01:06;;;;;;;4.90;4.03;;;19.30;48.80;;;;;;1486951;40;20372;-63
2021/05/31 07:02:27;;;;;;;4.63;3.88;;;19.40;48.90;;;;;;1488905;39;20038;-62
2021/05/31 07:03:48;;;;;;;4.95;3.83;;;19.40;48.90;;;;;;1484314;40;20032;-62
2021/05/31 07:05:11;;;;;;;5.28;3.92;;;19.40;48.80;;;;;;1476302;40;20340;-62
2021/05/31 07:06:32;;;;;;;5.30;4.20;;;19.50;49.00;;;;;;1482484;40;20032;-61
2021/05/31 07:07:53;;;;;;;5.55;4.13;;;19.50;49.00;;;;;;1482710;40;20118;-62
2021/05/31 07:09:14;;;;;;;4.60;3.88;;;19.50;49.10;;;;;;1482887;40;20033;-61
2021/05/31 07:10:35;;;;;;;4.32;3.75;;;19.60;49.20;;;;;;1484746;40;20358;-62
2021/05/31 07:11:56;;;;;;;4.70;3.72;;;19.60;49.10;;;;;;1483698;40;20040;-61
2021/05/31 07:13:19;;;;;;;4.65;4.00;;;19.60;49.10;;;;;;1483622;40;20033;-61
2021/05/31 07:14:43;;;;;;;5.55;4.18;;;19.70;49.20;;;;;;1478462;40;20048;-61
2021/05/31 07:16:15;;;;;;;5.65;3.75;;;19.80;49.20;;;;;;1479075;40;20029;-61
2021/05/31 07:17:37;;;;;;;4.40;3.13;;;19.80;49.00;;;;;;1477840;40;20037;-61
2021/05/31 07:19:02;;;;;;;4.97;3.70;;;19.80;48.80;;;;;;1479587;40;20281;-61
2021/05/31 07:20:26;;;;;;;5.05;3.72;;;19.90;48.60;;;;;;1483159;40;20110;-61
2021/05/31 07:21:47;;;;;;;5.03;4.05;;;19.90;48.20;;;;;;1476510;40;20030;-61
2021/05/31 07:23:10;;;;;;;4.22;3.70;;;19.90;48.00;;;;;;1476243;40;20030;-61
2021/05/31 07:24:31;;;;;;;4.78;3.50;;;19.90;47.80;;;;;;1479872;40;20080;-61
2021/05/31 07:25:52;;;;;;;5.30;3.78;;;20.00;48.00;;;;;;1477489;40;20033;-61
2021/05/31 07:27:13;;;;;;;4.63;3.67;;;20.10;48.00;;;;;;1477864;40;20041;-61
2021/05/31 07:28:35;;;;;;;3.25;2.95;;;20.10;48.30;;;;;;1478671;40;20060;-61
2021/05/31 07:29:56;;;;;;;3.60;3.28;;;20.10;48.30;;;;;;1480567;40;20286;-61
2021/05/31 07:31:18;;;;;;;5.53;3.97;;;20.20;48.30;;;;;;1476533;40;20352;-61
2021/05/31 07:32:39;;;;;;;5.80;3.65;;;20.20;48.60;;;;;;1477428;40;20036;-61
2021/05/31 07:34:00;;;;;;;5.10;3.42;;;20.20;48.70;;;;;;1476156;40;20022;-61
2021/05/31 07:35:21;;;;;;;6.93;3.65;;;20.30;49.00;;;;;;1479746;40;20658;-61
2021/05/31 07:36:42;;;;;;;4.60;3.80;;;20.30;48.60;;;;;;1481405;40;20270;-61
2021/05/31 07:38:06;;;;;;;4.07;3.70;;;20.40;48.30;;;;;;1477637;40;20056;-61
2021/05/31 07:39:30;;;;;;;5.03;3.75;;;20.40;48.00;;;;;;1478622;40;20017;-61
2021/05/31 07:40:51;;;;;;;4.10;3.70;;;20.50;47.90;;;;;;1478241;40;20168;-61
2021/05/31 07:42:12;;;;;;;6.90;4.43;;;20.50;47.80;;;;;;1475379;40;20045;-61
2021/05/31 07:43:32;;;;;;;4.82;4.00;;;20.50;47.50;;;;;;1474169;40;20026;-61
2021/05/31 07:44:53;;;;;;;5.47;4.68;;;20.60;47.20;;;;;;1473446;40;20030;-61
2021/05/31 07:46:15;;;;;;;7.38;3.63;;;20.60;47.40;;;;;;1477987;40;20400;-61
2021/05/31 07:50:14;;;;;;;4.82;3.67;;;20.70;47.10;;;;;;1473565;40;20041;-61
2021/05/31 07:51:40;;;;;;;4.75;3.80;;;20.70;47.00;;;;;;1477680;40;20036;-61
2021/05/31 07:53:01;;;;;;;4.05;3.50;;;20.80;47.10;;;;;;1479291;40;20033;-61